createdAt,value
2016-11-04T00:00:40.448Z,68.19
2016-11-04T00:01:50.426Z,67.81
2016-11-04T00:03:00.771Z,67.81
2016-11-04T00:04:10.747Z,67.81
2016-11-04T00:05:20.456Z,68.1
2016-11-04T00:06:30.792Z,68.38
2016-11-04T00:07:41.074Z,67.96
2016-11-04T00:08:51.360Z,67.96
2016-11-04T00:10:01.342Z,68.15
2016-11-04T00:11:11.004Z,68.1
2016-11-04T00:12:21.334Z,68.15
2016-11-04T00:13:31.659Z,67.77
2016-11-04T00:14:41.616Z,67.87
2016-11-04T00:15:51.894Z,67.71
2016-11-04T00:17:01.857Z,67.68
2016-11-04T00:18:12.178Z,68.15
2016-11-04T00:19:22.455Z,68.15
2016-11-04T00:20:32.743Z,67.96
2016-11-04T00:21:42.714Z,68.15
2016-11-04T00:22:52.684Z,68.06
2016-11-04T00:24:02.965Z,68.06
2016-11-04T00:25:12.929Z,68.15
2016-11-04T00:26:22.595Z,68.15
2016-11-04T00:27:32.887Z,68.44
2016-11-04T00:28:43.169Z,68.44
2016-11-04T00:29:53.160Z,68.73
2016-11-04T00:31:03.441Z,68.73
2016-11-04T00:32:13.709Z,68.73
2016-11-04T00:33:23.670Z,68.63
2016-11-04T00:34:33.341Z,68.63
2016-11-04T00:35:43.618Z,68.35
2016-11-04T00:36:53.891Z,68.73
2016-11-04T00:38:03.569Z,68.73
2016-11-04T00:39:13.844Z,68.82
2016-11-04T00:40:23.816Z,68.63
2016-11-04T00:41:33.491Z,68.35
2016-11-04T00:42:43.454Z,68.54
2016-11-04T00:43:53.466Z,68.54
2016-11-04T00:45:03.133Z,68.44
2016-11-04T00:46:13.420Z,68.35
2016-11-04T00:47:23.408Z,68.54
2016-11-04T00:48:33.397Z,68.44
2016-11-04T00:49:43.689Z,68.54
2016-11-04T00:50:53.976Z,68.44
2016-11-04T00:52:04.318Z,68.63
2016-11-04T00:53:14.301Z,68.63
2016-11-04T00:54:24.586Z,68.63
2016-11-04T00:55:34.538Z,68.44
2016-11-04T00:56:44.820Z,68.73
2016-11-04T00:57:55.106Z,68.54
2016-11-04T00:59:05.087Z,68.73
2016-11-04T01:00:15.050Z,68.15
2016-11-04T01:01:25.336Z,68.06
2016-11-04T01:02:35.302Z,68.54
2016-11-04T01:03:45.269Z,68.63
2016-11-04T01:04:55.237Z,68.25
2016-11-04T01:06:05.512Z,68.31
2016-11-04T01:07:15.479Z,68.5
2016-11-04T01:08:25.767Z,68.35
2016-11-04T01:09:36.048Z,68.15
2016-11-04T01:10:45.701Z,68.15
2016-11-04T01:11:55.987Z,68.02
2016-11-04T01:13:06.258Z,68.02
2016-11-04T01:14:16.272Z,68.21
2016-11-04T01:15:26.541Z,68.5
2016-11-04T01:16:36.808Z,68.69
2016-11-04T01:17:47.085Z,68.79
2016-11-04T01:18:56.761Z,68.69
2016-11-04T01:20:07.055Z,68.79
2016-11-04T01:21:17.027Z,68.5
2016-11-04T01:22:27.007Z,68.59
2016-11-04T01:23:37.283Z,68.59
2016-11-04T01:24:47.251Z,68.79
2016-11-04T01:25:57.548Z,68.79
2016-11-04T01:27:07.839Z,68.79
2016-11-04T01:28:18.105Z,68.59
2016-11-04T01:29:28.092Z,68.79
2016-11-04T01:30:38.369Z,68.79
2016-11-04T01:31:48.640Z,68.79
2016-11-04T01:32:58.298Z,68.79
2016-11-04T01:34:08.578Z,68.5
2016-11-04T01:35:18.846Z,68.5
2016-11-04T01:36:28.860Z,68.5
2016-11-04T01:37:39.150Z,68.5
2016-11-04T01:38:49.462Z,68.12
2016-11-04T01:39:59.773Z,68.02
2016-11-04T01:41:10.049Z,68.31
2016-11-04T01:42:20.349Z,67.93
2016-11-04T01:43:30.336Z,68.02
2016-11-04T01:44:40.609Z,68.79
2016-11-04T01:45:50.911Z,68.31
2016-11-04T01:47:01.173Z,68.02
2016-11-04T01:48:11.454Z,68.12
2016-11-04T01:49:21.422Z,67.65
2016-11-04T01:50:31.696Z,67.65
2016-11-04T01:51:41.999Z,67.55
2016-11-04T01:52:52.292Z,67.65
2016-11-04T01:54:02.258Z,67.74
2016-11-04T01:55:12.543Z,67.83
2016-11-04T01:56:22.505Z,67.65
2016-11-04T01:57:32.797Z,67.83
2016-11-04T01:58:42.818Z,67.74
2016-11-04T01:59:52.803Z,68.21
2016-11-04T02:01:03.078Z,68.02
2016-11-04T02:02:13.356Z,68.12
2016-11-04T02:03:23.325Z,68.12
2016-11-04T02:04:33.337Z,68.12
2016-11-04T02:05:43.318Z,67.9
2016-11-04T02:06:53.613Z,67.99
2016-11-04T02:08:03.888Z,67.99
2016-11-04T02:09:13.904Z,68.08
2016-11-04T02:10:23.875Z,68.08
2016-11-04T02:11:34.149Z,67.99
2016-11-04T02:12:44.430Z,68.08
2016-11-04T02:13:54.715Z,67.9
2016-11-04T02:15:05.002Z,68.08
2016-11-04T02:16:14.983Z,68.08
2016-11-04T02:17:25.258Z,67.99
2016-11-04T02:18:35.534Z,67.99
2016-11-04T02:19:45.223Z,68.46
2016-11-04T02:20:55.510Z,67.99
2016-11-04T02:22:05.526Z,68.75
2016-11-04T02:23:15.804Z,68.37
2016-11-04T02:24:26.108Z,68.75
2016-11-04T02:25:36.388Z,68.18
2016-11-04T02:26:46.366Z,67.99
2016-11-04T02:27:56.320Z,67.99
2016-11-04T02:29:06.298Z,68.75
2016-11-04T02:30:16.595Z,68.37
2016-11-04T02:31:26.880Z,68.37
2016-11-04T02:32:37.153Z,68.08
2016-11-04T02:33:47.439Z,68.37
2016-11-04T02:34:57.450Z,68.46
2016-11-04T02:36:07.131Z,68.84
2016-11-04T02:37:17.104Z,68.08
2016-11-04T02:38:27.069Z,68.08
2016-11-04T02:39:36.747Z,68.08
2016-11-04T02:40:46.731Z,67.9
2016-11-04T02:41:56.395Z,68.18
2016-11-04T02:43:06.367Z,68.08
2016-11-04T02:44:16.332Z,68.18
2016-11-04T02:45:26.640Z,68.18
2016-11-04T02:46:36.961Z,68.08
2016-11-04T02:47:47.239Z,68.08
2016-11-04T02:48:57.515Z,67.99
2016-11-04T02:50:07.792Z,67.99
2016-11-04T02:51:18.068Z,68.18
2016-11-04T02:52:28.351Z,68.56
2016-11-04T02:53:38.321Z,68.27
2016-11-04T02:54:48.612Z,68.08
2016-11-04T02:55:58.589Z,67.9
2016-11-04T02:57:08.867Z,68.37
2016-11-04T02:58:18.852Z,68.08
2016-11-04T02:59:28.824Z,68.18
2016-11-04T03:00:38.211Z,68.75
2016-11-04T03:32:02.965Z,67.38
2016-11-04T03:33:13.227Z,67.85
2016-11-04T03:34:23.494Z,68.8
2016-11-04T03:35:33.775Z,69.37
2016-11-04T03:36:44.049Z,70.21
2016-11-04T03:37:54.013Z,70.4
2016-11-04T03:39:03.986Z,70.12
2016-11-04T03:40:14.274Z,71.35
2016-11-04T03:41:24.555Z,70.97
2016-11-04T03:42:34.836Z,71.35
2016-11-04T03:43:45.119Z,70.82
2016-11-04T03:44:55.411Z,70.73
2016-11-04T03:46:05.386Z,70.54
2016-11-04T03:47:15.672Z,70.35
2016-11-04T03:48:25.951Z,70.25
2016-11-04T03:49:36.267Z,69.72
2016-11-04T03:50:46.552Z,69.63
2016-11-04T03:51:56.830Z,69.53
2016-11-04T03:53:06.802Z,69.15
2016-11-04T03:54:16.783Z,68.96
2016-11-04T03:55:26.769Z,69.34
2016-11-04T03:56:36.739Z,69
2016-11-04T03:57:46.747Z,69.19
2016-11-04T03:58:57.025Z,68.81
2016-11-04T04:00:07.311Z,69.19
2016-11-04T04:01:16.697Z,68.71
2016-11-04T04:02:26.679Z,68.52
2016-11-04T04:03:36.947Z,68.15
2016-11-04T04:04:47.227Z,68.43
2016-11-04T04:05:57.502Z,68.62
2016-11-04T04:07:07.762Z,68.52
2016-11-04T04:08:18.045Z,68.43
2016-11-04T04:09:28.327Z,68.43
2016-11-04T04:10:38.300Z,68.33
2016-11-04T04:11:48.289Z,68.27
2016-11-04T04:12:57.959Z,67.9
2016-11-04T04:14:08.230Z,67.8
2016-11-04T04:15:18.512Z,67.99
2016-11-04T04:16:28.210Z,67.99
2016-11-04T04:17:38.176Z,67.9
2016-11-04T04:18:48.148Z,68.08
2016-11-04T04:19:58.436Z,67.71
2016-11-04T04:21:08.425Z,68.08
2016-11-04T04:22:18.709Z,67.61
2016-11-04T04:23:28.994Z,68.08
2016-11-04T04:24:39.273Z,68.08
2016-11-04T04:25:48.942Z,67.61
2016-11-04T04:26:59.132Z,67.71
2016-11-04T04:28:09.402Z,67.71
2016-11-04T04:29:19.695Z,68.08
2016-11-04T04:30:29.966Z,67.99
2016-11-04T04:31:40.258Z,68.08
2016-11-04T04:32:49.925Z,67.9
2016-11-04T04:33:59.901Z,67.99
2016-11-04T04:35:10.181Z,68.08
2016-11-04T04:36:20.484Z,67.9
2016-11-04T04:37:30.759Z,68.08
2016-11-04T04:38:40.731Z,67.9
2016-11-04T04:39:50.699Z,68.08
2016-11-04T04:41:00.984Z,68.18
2016-11-04T04:42:10.956Z,67.99
2016-11-04T04:43:20.928Z,67.8
2016-11-04T04:44:31.210Z,68.18
2016-11-04T04:45:41.517Z,67.8
2016-11-04T04:46:51.743Z,67.99
2016-11-04T04:48:02.004Z,67.99
2016-11-04T04:49:12.282Z,68.08
2016-11-04T04:50:22.254Z,68.08
2016-11-04T04:51:32.546Z,67.99
2016-11-04T04:52:42.842Z,67.99
2016-11-04T04:53:53.118Z,68.18
2016-11-04T04:55:03.431Z,67.61
2016-11-04T04:56:13.714Z,67.61
2016-11-04T04:57:23.692Z,67.61
2016-11-04T04:58:33.985Z,67.61
2016-11-04T04:59:44.267Z,67.61
2016-11-04T05:00:54.546Z,67.61
2016-11-04T05:02:04.522Z,67.8
2016-11-04T05:03:14.813Z,67.9
2016-11-04T05:04:25.105Z,67.71
2016-11-04T05:05:35.397Z,67.71
2016-11-04T05:06:45.677Z,67.61
2016-11-04T05:07:55.959Z,67.61
2016-11-04T05:09:05.923Z,68.08
2016-11-04T05:10:15.623Z,68.18
2016-11-04T05:11:25.904Z,67.99
2016-11-04T05:12:35.869Z,67.9
2016-11-04T05:13:46.158Z,67.99
2016-11-04T05:14:56.139Z,67.71
2016-11-04T05:16:06.117Z,68.08
2016-11-04T05:17:16.409Z,68.08
2016-11-04T05:18:26.371Z,68.08
2016-11-04T05:19:36.654Z,67.9
2016-11-04T05:20:46.319Z,67.99
2016-11-04T05:21:55.979Z,68.08
2016-11-04T05:23:05.991Z,68.08
2016-11-04T05:24:15.956Z,67.61
2016-11-04T05:25:26.231Z,67.71
2016-11-04T05:26:36.508Z,67.61
2016-11-04T05:27:46.194Z,67.61
2016-11-04T05:28:56.470Z,67.8
2016-11-04T05:30:06.134Z,67.52
2016-11-04T05:31:16.423Z,67.8
2016-11-04T05:32:26.406Z,67.8
2016-11-04T05:33:36.392Z,67.61
2016-11-04T05:34:46.350Z,67.61
2016-11-04T05:35:56.316Z,67.9
2016-11-04T05:37:05.978Z,67.9
2016-11-04T05:38:15.961Z,67.71
2016-11-04T05:39:26.287Z,67.61
2016-11-04T05:40:36.608Z,67.8
2016-11-04T05:41:45.994Z,67.8
2016-11-04T05:42:56.295Z,67.8
2016-11-04T05:44:06.572Z,67.8
2016-11-04T05:45:16.864Z,67.61
2016-11-04T05:46:26.842Z,67.8
2016-11-04T05:47:37.121Z,67.9
2016-11-04T05:48:47.105Z,68.08
2016-11-04T05:49:57.426Z,68.08
2016-11-04T05:51:07.397Z,67.9
2016-11-04T05:52:17.374Z,67.99
2016-11-04T05:53:27.659Z,68.18
2016-11-04T05:54:37.938Z,68.08
2016-11-04T05:55:48.220Z,68.08
2016-11-04T05:56:58.516Z,67.61
2016-11-04T05:58:08.498Z,67.52
2016-11-04T05:59:18.162Z,67.52
2016-11-04T06:00:28.432Z,67.71
2016-11-04T06:01:38.714Z,67.61
2016-11-04T06:02:48.677Z,67.61
2016-11-04T06:03:58.340Z,67.43
2016-11-04T06:05:08.643Z,67.52
2016-11-04T06:06:18.923Z,67.33
2016-11-04T06:07:28.907Z,67.52
2016-11-04T06:08:39.194Z,67.46
2016-11-04T06:09:48.875Z,67.9
2016-11-04T06:10:59.198Z,67.65
2016-11-04T06:12:08.865Z,66.99
2016-11-04T06:13:18.851Z,67.36
2016-11-04T06:14:29.147Z,67.18
2016-11-04T06:15:39.434Z,67.18
2016-11-04T06:16:49.711Z,67.18
2016-11-04T06:17:59.668Z,67.18
2016-11-04T06:19:09.633Z,67.27
2016-11-04T06:20:19.980Z,67.02
2016-11-04T06:21:30.257Z,66.54
2016-11-04T06:22:40.229Z,67.02
2016-11-04T06:23:50.220Z,67.11
2016-11-04T06:24:59.892Z,67.11
2016-11-04T06:26:09.851Z,66.54
2016-11-04T06:27:20.141Z,66.74
2016-11-04T06:28:30.417Z,66.48
2016-11-04T06:29:40.123Z,66.77
2016-11-04T06:30:50.400Z,66.39
2016-11-04T06:32:00.712Z,66.77
2016-11-04T06:33:11.060Z,66.58
2016-11-04T06:34:21.036Z,66.48
2016-11-04T06:35:31.041Z,66.77
2016-11-04T06:36:41.325Z,66.77
2016-11-04T06:37:51.295Z,66.61
2016-11-04T06:39:00.651Z,66.33
2016-11-04T06:40:11.046Z,67.08
2016-11-04T06:41:21.021Z,66.8
2016-11-04T06:42:31.308Z,66.33
2016-11-04T06:43:41.594Z,67.37
2016-11-04T06:44:50.962Z,67.18
2016-11-04T06:46:01.239Z,67.18
2016-11-04T06:47:10.903Z,66.99
2016-11-04T06:48:21.193Z,67.27
2016-11-04T06:49:31.177Z,67.18
2016-11-04T06:50:41.148Z,67.37
2016-11-04T06:51:51.446Z,67.18
2016-11-04T06:53:01.727Z,67.12
2016-11-04T06:54:11.729Z,67.02
2016-11-04T06:55:21.739Z,67.31
2016-11-04T06:56:31.401Z,67.12
2016-11-04T06:57:41.680Z,67.21
2016-11-04T06:58:51.956Z,67.31
2016-11-04T07:00:01.313Z,67.85
2016-11-04T07:01:11.608Z,67.88
2016-11-04T07:02:21.271Z,67.94
2016-11-04T07:03:31.243Z,68.04
2016-11-04T07:04:41.209Z,68.04
2016-11-04T07:05:51.175Z,67.85
2016-11-04T07:07:01.464Z,67.94
2016-11-04T07:08:11.450Z,68.13
2016-11-04T07:09:21.118Z,67.94
2016-11-04T07:10:31.091Z,67.75
2016-11-04T07:11:41.095Z,67.94
2016-11-04T07:12:51.115Z,68.13
2016-11-04T07:14:01.398Z,68.16
2016-11-04T07:15:11.294Z,67.97
2016-11-04T07:16:21.570Z,68.07
2016-11-04T07:17:31.555Z,68.26
2016-11-04T07:18:41.879Z,67.59
2016-11-04T07:19:52.156Z,67.88
2016-11-04T07:21:02.472Z,67.5
2016-11-04T07:22:12.437Z,67.59
2016-11-04T07:23:22.414Z,67.79
2016-11-04T07:24:32.092Z,68.26
2016-11-04T07:25:42.082Z,68.16
2016-11-04T07:26:52.360Z,68.16
2016-11-04T07:28:02.059Z,68.16
2016-11-04T07:29:12.033Z,68.07
2016-11-04T07:30:21.694Z,68.16
2016-11-04T07:31:31.985Z,67.97
2016-11-04T07:32:41.657Z,67.97
2016-11-04T07:33:51.634Z,67.88
2016-11-04T07:35:01.608Z,67.88
2016-11-04T07:36:11.917Z,68.01
2016-11-04T07:37:21.898Z,68.07
2016-11-04T07:38:32.165Z,67.97
2016-11-04T07:39:42.127Z,67.79
2016-11-04T07:40:51.790Z,68.16
2016-11-04T07:42:01.765Z,68.07
2016-11-04T07:43:12.056Z,68.26
2016-11-04T07:44:22.354Z,68.44
2016-11-04T07:45:32.655Z,68.26
2016-11-04T07:46:42.944Z,68.64
2016-11-04T07:47:52.933Z,68.26
2016-11-04T07:49:03.226Z,68.64
2016-11-04T07:50:13.192Z,68.64
2016-11-04T07:51:23.164Z,68.26
2016-11-04T07:52:33.447Z,68.19
2016-11-04T07:53:43.727Z,67.82
2016-11-04T07:54:54.359Z,67.72
2016-11-04T07:56:05.535Z,67.91
2016-11-04T07:57:15.571Z,67.72
2016-11-04T07:58:25.917Z,67.72
2016-11-04T07:59:35.697Z,67.82
2016-11-04T08:00:46.259Z,67.53
2016-11-04T08:01:56.599Z,67.72
2016-11-04T08:03:06.623Z,67.57
2016-11-04T08:04:16.750Z,67.38
2016-11-04T08:05:27.117Z,67.47
2016-11-04T08:06:37.148Z,67.28
2016-11-04T08:07:47.462Z,67.28
2016-11-04T08:08:57.169Z,67.47
2016-11-04T08:10:06.875Z,67.28
2016-11-04T08:11:16.552Z,67.47
2016-11-04T08:12:26.562Z,67.38
2016-11-04T08:13:35.969Z,67.09
2016-11-04T08:14:45.999Z,67.28
2016-11-04T08:15:56.300Z,67.22
2016-11-04T08:17:06.323Z,67.19
2016-11-04T08:18:16.619Z,67.28
2016-11-04T08:19:26.631Z,67.66
2016-11-04T08:20:35.993Z,67.85
2016-11-04T08:21:46.302Z,67.76
2016-11-04T08:22:55.996Z,67.98
2016-11-04T08:24:06.001Z,67.79
2016-11-04T08:25:16.307Z,67.79
2016-11-04T08:26:26.584Z,67.79
2016-11-04T08:27:36.625Z,67.6
2016-11-04T08:28:47.029Z,67.88
2016-11-04T08:29:57.062Z,68.07
2016-11-04T08:31:07.051Z,67.76
2016-11-04T08:32:17.582Z,68.33
2016-11-04T08:33:27.577Z,68.13
2016-11-04T08:34:37.863Z,68.23
2016-11-04T08:35:47.892Z,68.17
2016-11-04T08:36:57.914Z,68.07
2016-11-04T08:38:08.226Z,67.98
2016-11-04T08:39:18.230Z,67.69
2016-11-04T08:40:28.516Z,67.98
2016-11-04T08:41:38.814Z,68.36
2016-11-04T08:42:49.168Z,68.07
2016-11-04T08:43:59.475Z,68.17
2016-11-04T08:45:09.792Z,67.98
2016-11-04T08:46:19.795Z,67.88
2016-11-04T08:47:29.526Z,67.88
2016-11-04T08:48:39.921Z,68.27
2016-11-04T08:49:50.251Z,68.17
2016-11-04T08:51:00.555Z,67.88
2016-11-04T08:52:10.576Z,68.36
2016-11-04T08:53:20.884Z,68.07
2016-11-04T08:54:30.897Z,67.98
2016-11-04T08:55:41.182Z,68.07
2016-11-04T08:56:51.185Z,68.27
2016-11-04T08:58:01.477Z,68.07
2016-11-04T08:59:11.473Z,68.27
2016-11-04T09:00:21.145Z,68.36
2016-11-04T09:01:31.180Z,68.07
2016-11-04T09:02:41.499Z,67.98
2016-11-04T09:03:51.797Z,68.27
2016-11-04T09:05:01.467Z,68.07
2016-11-04T09:06:11.770Z,67.88
2016-11-04T09:07:21.450Z,67.88
2016-11-04T09:08:31.768Z,68.36
2016-11-04T09:09:41.747Z,68.36
2016-11-04T09:10:51.763Z,68.17
2016-11-04T09:12:02.082Z,68.17
2016-11-04T09:13:11.773Z,68.07
2016-11-04T09:14:21.808Z,68.17
2016-11-04T09:15:32.118Z,67.98
2016-11-04T09:16:41.811Z,68.07
2016-11-04T09:17:52.139Z,68.07
2016-11-04T09:19:02.652Z,68.36
2016-11-04T09:20:12.952Z,67.79
2016-11-04T09:21:23.249Z,68.27
2016-11-04T09:22:33.562Z,68.07
2016-11-04T09:23:43.858Z,68.27
2016-11-04T09:24:54.166Z,68.11
2016-11-04T09:26:04.503Z,67.82
2016-11-04T09:27:14.799Z,68.01
2016-11-04T09:28:24.801Z,67.82
2016-11-04T09:29:35.108Z,68.27
2016-11-04T09:30:44.782Z,68.07
2016-11-04T09:31:54.778Z,67.88
2016-11-04T09:33:04.789Z,68.27
2016-11-04T09:34:14.484Z,68.11
2016-11-04T09:35:24.782Z,68.11
2016-11-04T09:36:34.779Z,68.17
2016-11-04T09:37:44.773Z,68.17
2016-11-04T09:38:54.795Z,67.88
2016-11-04T09:40:04.162Z,68.27
2016-11-04T09:41:14.452Z,68.07
2016-11-04T09:42:24.135Z,67.88
2016-11-04T09:43:34.153Z,68.27
2016-11-04T09:44:44.471Z,68.17
2016-11-04T09:45:54.779Z,68.36
2016-11-04T09:47:05.078Z,68.36
2016-11-04T09:48:15.379Z,68.27
2016-11-04T09:49:25.698Z,68.36
2016-11-04T09:50:36.004Z,67.79
2016-11-04T09:51:46.032Z,67.88
2016-11-04T09:52:56.353Z,68.17
2016-11-04T09:54:06.368Z,67.88
2016-11-04T09:55:16.680Z,68.07
2016-11-04T09:56:26.681Z,68.17
2016-11-04T09:57:36.980Z,67.79
2016-11-04T09:58:47.312Z,68.27
2016-11-04T09:59:57.610Z,68.93
2016-11-04T10:01:07.939Z,68.84
2016-11-04T10:02:18.246Z,68.65
2016-11-04T10:03:28.254Z,68.36
2016-11-04T10:04:38.268Z,68.36
2016-11-04T10:05:48.569Z,68.36
2016-11-04T10:06:58.562Z,67.92
2016-11-04T10:08:08.864Z,67.88
2016-11-04T10:09:19.191Z,68.11
2016-11-04T10:10:29.493Z,68.49
2016-11-04T10:11:39.503Z,69.02
2016-11-04T10:12:49.797Z,68.4
2016-11-04T10:13:59.512Z,68.4
2016-11-04T10:15:09.813Z,67.82
2016-11-04T10:16:20.106Z,68.3
2016-11-04T10:17:30.103Z,68.4
2016-11-04T10:18:40.093Z,68.65
2016-11-04T10:19:50.078Z,68.74
2016-11-04T10:21:00.112Z,68.74
2016-11-04T10:22:10.433Z,68.93
2016-11-04T10:23:20.741Z,68.36
2016-11-04T10:24:30.436Z,68.84
2016-11-04T10:25:40.431Z,68.74
2016-11-04T10:26:50.459Z,68.84
2016-11-04T10:28:00.789Z,68.93
2016-11-04T10:29:11.105Z,68.84
2016-11-04T10:30:21.407Z,68.84
2016-11-04T10:31:31.723Z,69.06
2016-11-04T10:32:42.057Z,68.3
2016-11-04T10:33:52.353Z,68.3
2016-11-04T10:35:02.027Z,68.3
2016-11-04T10:36:11.743Z,68.11
2016-11-04T10:37:23.544Z,68.4
2016-11-04T10:38:33.833Z,68.11
2016-11-04T10:39:43.835Z,68.3
2016-11-04T10:40:53.819Z,67.92
2016-11-04T10:42:03.814Z,68.3
2016-11-04T10:43:13.802Z,68.21
2016-11-04T10:44:23.817Z,68.11
2016-11-04T10:45:34.115Z,68.21
2016-11-04T10:46:44.407Z,68.01
2016-11-04T10:47:54.734Z,68.21
2016-11-04T10:49:04.751Z,68.3
2016-11-04T10:50:15.060Z,67.82
2016-11-04T10:51:25.436Z,67.95
2016-11-04T10:52:35.444Z,68.24
2016-11-04T10:53:45.427Z,68.33
2016-11-04T10:54:55.743Z,67.95
2016-11-04T10:56:06.051Z,67.57
2016-11-04T10:57:16.380Z,67.57
2016-11-04T10:58:26.687Z,67.51
2016-11-04T10:59:36.371Z,67.13
2016-11-04T11:00:46.403Z,67.41
2016-11-04T11:01:56.398Z,67.8
2016-11-04T11:03:06.726Z,67.7
2016-11-04T11:04:17.062Z,67.89
2016-11-04T11:05:26.748Z,67.8
2016-11-04T11:06:36.746Z,68.27
2016-11-04T11:07:46.735Z,68.18
2016-11-04T11:08:56.725Z,68.27
2016-11-04T11:10:07.044Z,68.37
2016-11-04T11:11:17.033Z,68.18
2016-11-04T11:12:27.348Z,68.18
2016-11-04T11:13:37.689Z,68.18
2016-11-04T11:14:47.699Z,68.18
2016-11-04T11:15:58.018Z,68.08
2016-11-04T11:17:08.324Z,68.27
2016-11-04T11:18:18.621Z,67.99
2016-11-04T11:19:28.621Z,68.27
2016-11-04T11:20:38.295Z,68.27
2016-11-04T11:21:47.993Z,67.89
2016-11-04T11:22:58.291Z,67.99
2016-11-04T11:24:08.609Z,67.8
2016-11-04T11:25:18.911Z,67.89
2016-11-04T11:26:28.580Z,67.99
2016-11-04T11:27:38.901Z,68.46
2016-11-04T11:28:48.572Z,69.13
2016-11-04T11:29:58.565Z,68.75
2016-11-04T11:31:08.865Z,68.75
2016-11-04T11:32:19.153Z,68.65
2016-11-04T11:33:28.517Z,69.04
2016-11-04T11:34:38.195Z,68.84
2016-11-04T11:35:48.507Z,68.84
2016-11-04T11:36:58.195Z,69.04
2016-11-04T11:38:08.184Z,68.94
2016-11-04T11:39:18.188Z,68.56
2016-11-04T11:40:28.221Z,68.94
2016-11-04T11:41:37.916Z,68.37
2016-11-04T11:42:48.213Z,68.27
2016-11-04T11:43:58.519Z,68.37
2016-11-04T11:45:08.818Z,68.27
2016-11-04T11:46:19.165Z,68.46
2016-11-04T11:47:29.171Z,68.37
2016-11-04T11:48:38.855Z,68.46
2016-11-04T11:49:48.866Z,67.99
2016-11-04T11:50:58.948Z,68.18
2016-11-04T11:52:09.257Z,68.08
2016-11-04T11:53:19.588Z,68.18
2016-11-04T11:54:29.897Z,68.5
2016-11-04T11:55:39.898Z,68.02
2016-11-04T11:56:49.597Z,67.74
2016-11-04T11:57:59.285Z,67.74
2016-11-04T11:59:09.260Z,67.64
2016-11-04T12:00:19.278Z,67.39
2016-11-04T12:01:28.638Z,67.48
2016-11-04T12:02:38.634Z,67.68
2016-11-04T12:03:48.932Z,67.29
2016-11-04T12:04:58.940Z,68.15
2016-11-04T12:06:08.646Z,67.86
2016-11-04T12:07:18.648Z,67.96
2016-11-04T12:08:28.633Z,68.05
2016-11-04T12:09:38.932Z,67.96
2016-11-04T12:10:49.219Z,67.77
2016-11-04T12:11:59.227Z,68.05
2016-11-04T12:13:09.562Z,67.96
2016-11-04T12:14:19.551Z,67.86
2016-11-04T12:15:29.545Z,67.96
2016-11-04T12:16:39.907Z,67.86
2016-11-04T12:17:49.915Z,67.96
2016-11-04T12:19:00.239Z,68.09
2016-11-04T12:20:10.276Z,67.99
2016-11-04T12:21:19.976Z,68.09
2016-11-04T12:22:30.285Z,67.9
2016-11-04T12:23:40.594Z,67.99
2016-11-04T12:24:50.875Z,68.18
2016-11-04T12:26:00.870Z,67.9
2016-11-04T12:27:11.137Z,67.61
2016-11-04T12:28:21.445Z,67.52
2016-11-04T12:29:31.133Z,67.46
2016-11-04T12:30:40.843Z,67.71
2016-11-04T12:31:51.164Z,67.46
2016-11-04T12:33:01.161Z,67.46
2016-11-04T12:34:11.134Z,67.55
2016-11-04T12:35:21.166Z,68.12
2016-11-04T12:36:30.879Z,68.03
2016-11-04T12:37:40.897Z,67.93
2016-11-04T12:38:51.187Z,68.32
2016-11-04T12:40:01.533Z,68.51
2016-11-04T12:41:11.832Z,68.12
2016-11-04T12:42:21.831Z,68.32
2016-11-04T12:43:31.816Z,68.12
2016-11-04T12:44:42.116Z,68.57
2016-11-04T12:45:51.478Z,69.27
2016-11-04T12:47:01.161Z,68.95
2016-11-04T12:48:11.443Z,69.04
2016-11-04T12:49:21.145Z,69.23
2016-11-04T12:50:31.432Z,69.43
2016-11-04T12:51:41.721Z,69.04
2016-11-04T12:52:51.728Z,68.66
2016-11-04T12:54:02.065Z,69.04
2016-11-04T12:55:12.358Z,69.14
2016-11-04T12:56:22.326Z,67.99
2016-11-04T12:57:32.641Z,68.22
2016-11-04T12:58:42.634Z,68.51
2016-11-04T12:59:52.953Z,68.41
2016-11-04T13:01:02.673Z,68.41
2016-11-04T13:02:12.646Z,68.41
2016-11-04T13:03:23.001Z,68.41
2016-11-04T13:04:33.299Z,68.32
2016-11-04T13:05:43.597Z,68.32
2016-11-04T13:06:53.876Z,68.12
2016-11-04T13:08:03.916Z,68.32
2016-11-04T13:09:13.918Z,68.32
2016-11-04T13:10:24.221Z,68.32
2016-11-04T13:11:34.210Z,68.6
2016-11-04T13:12:44.213Z,68.6
2016-11-04T13:13:54.525Z,68.7
2016-11-04T13:15:04.864Z,69.08
2016-11-04T13:16:14.536Z,69.27
2016-11-04T13:17:24.846Z,68.98
2016-11-04T13:18:34.840Z,69.08
2016-11-04T13:19:45.156Z,68.98
2016-11-04T13:20:55.459Z,68.98
2016-11-04T13:22:05.122Z,68.79
2016-11-04T13:23:15.436Z,68.79
2016-11-04T13:24:25.762Z,68.98
2016-11-04T13:25:35.770Z,68.79
2016-11-04T13:26:45.452Z,68.88
2016-11-04T13:27:55.761Z,68.7
2016-11-04T13:29:06.056Z,68.79
2016-11-04T13:30:16.057Z,68.79
2016-11-04T13:31:26.340Z,68.88
2016-11-04T13:32:36.317Z,68.98
2016-11-04T13:33:46.298Z,68.7
2016-11-04T13:34:56.597Z,68.98
2016-11-04T13:36:06.629Z,69.04
2016-11-04T13:37:16.623Z,69.14
2016-11-04T13:38:26.379Z,68.95
2016-11-04T13:39:36.051Z,69.14
2016-11-04T13:40:46.359Z,68.85
2016-11-04T13:41:56.671Z,69.23
2016-11-04T13:43:06.999Z,69.23
2016-11-04T13:44:17.287Z,69.14
2016-11-04T13:45:27.265Z,69.14
2016-11-04T13:46:37.260Z,68.95
2016-11-04T13:47:47.558Z,68.57
2016-11-04T13:48:57.587Z,68.76
2016-11-04T13:50:07.586Z,69.33
2016-11-04T13:51:16.957Z,69.33
2016-11-04T13:52:27.250Z,69.23
2016-11-04T13:53:36.984Z,69.2
2016-11-04T13:54:47.280Z,69.39
2016-11-04T13:55:57.270Z,69.48
2016-11-04T13:57:07.600Z,69.39
2016-11-04T13:58:17.597Z,69.48
2016-11-04T13:59:27.279Z,69.39
2016-11-04T14:00:37.272Z,69.58
2016-11-04T14:01:47.286Z,69.48
2016-11-04T14:02:57.578Z,69.39
2016-11-04T14:04:07.878Z,69.39
2016-11-04T14:05:17.875Z,69.39
2016-11-04T14:06:28.189Z,69.48
2016-11-04T14:07:38.190Z,69.29
2016-11-04T14:08:49.373Z,69.2
2016-11-04T14:09:59.377Z,69.39
2016-11-04T14:11:09.363Z,69.39
2016-11-04T14:12:19.680Z,69.39
2016-11-04T14:13:29.699Z,69.87
2016-11-04T14:14:40.006Z,69.87
2016-11-04T14:15:49.991Z,69.77
2016-11-04T14:17:00.284Z,69.58
2016-11-04T14:18:10.584Z,69.48
2016-11-04T14:19:20.881Z,69.87
2016-11-04T14:20:31.185Z,69.68
2016-11-04T14:21:41.471Z,69.77
2016-11-04T14:22:51.492Z,69.58
2016-11-04T14:24:01.174Z,69.96
2016-11-04T14:25:11.456Z,69.68
2016-11-04T14:26:21.143Z,69.58
2016-11-04T14:27:31.137Z,69.77
2016-11-04T14:28:41.447Z,69.48
2016-11-04T14:29:51.432Z,69.01
2016-11-04T14:31:01.117Z,69.39
2016-11-04T14:32:11.415Z,69.1
2016-11-04T14:33:21.718Z,69.29
2016-11-04T14:34:31.388Z,69.29
2016-11-04T14:35:41.718Z,69.39
2016-11-04T14:36:51.401Z,69.87
2016-11-04T14:38:01.750Z,69.68
2016-11-04T14:39:11.417Z,69.77
2016-11-04T14:40:21.711Z,69.68
2016-11-04T14:41:32.008Z,69.68
2016-11-04T14:42:41.982Z,69.77
2016-11-04T14:43:51.976Z,69.87
2016-11-04T14:45:01.960Z,69.87
2016-11-04T14:46:11.659Z,69.87
2016-11-04T14:47:21.640Z,70.06
2016-11-04T14:48:31.629Z,69.58
2016-11-04T14:49:41.623Z,69.58
2016-11-04T14:50:51.934Z,69.68
2016-11-04T14:52:02.246Z,69.26
2016-11-04T14:53:12.577Z,69.45
2016-11-04T14:54:22.565Z,69.83
2016-11-04T14:55:32.912Z,69.74
2016-11-04T14:56:42.898Z,69.83
2016-11-04T14:57:52.883Z,70.02
2016-11-04T14:59:02.896Z,70.12
2016-11-04T15:00:12.883Z,70.12
2016-11-04T15:01:23.209Z,70.12
2016-11-04T15:02:33.218Z,70.4
2016-11-04T15:03:43.557Z,70.47
2016-11-04T15:04:53.537Z,70.27
2016-11-04T15:06:03.545Z,70.37
2016-11-04T15:07:13.832Z,70.47
2016-11-04T15:08:23.855Z,70.47
2016-11-04T15:09:33.841Z,70.37
2016-11-04T15:10:43.842Z,70.08
2016-11-04T15:11:54.143Z,70.08
2016-11-04T15:13:04.459Z,70.18
2016-11-04T15:14:14.163Z,70.18
2016-11-04T15:15:24.145Z,69.99
2016-11-04T15:16:34.177Z,70.18
2016-11-04T15:17:43.562Z,70.08
2016-11-04T15:18:53.889Z,69.89
2016-11-04T15:20:04.198Z,70.18
2016-11-04T15:21:13.881Z,70.14
2016-11-04T15:22:24.190Z,69.95
2016-11-04T15:23:34.501Z,70.05
2016-11-04T15:24:44.483Z,70.33
2016-11-04T15:25:54.210Z,70.05
2016-11-04T15:27:04.533Z,70.05
2016-11-04T15:28:14.857Z,69.85
2016-11-04T15:29:24.868Z,70.05
2016-11-04T15:30:35.145Z,70.14
2016-11-04T15:31:45.123Z,70.33
2016-11-04T15:32:54.800Z,70.14
2016-11-04T15:34:04.780Z,69.85
2016-11-04T15:35:15.098Z,69.85
2016-11-04T15:36:25.103Z,69.82